Time;durP1;ratioP1;P1;durP2;ratioP2;P2;SDS_P1;SDS_P2;PMS_P1;PMS_P2;Temp;Humidity;BMP_temperature;BMP_pressure;BME280_temperature;BME280_humidity;BME280_pressure;Samples;Min_cycle;Max_cycle;Signal;HPM_P1;HPM_P2
2021/04/18 00:01:36;;;;;;;9.40;8.53;;;4.80;99.90;;;;;;5023081;28;20448;-72
2021/04/18 00:04:01;;;;;;;8.50;7.50;;;4.80;99.90;;;;;;5021259;28;20476;-72
2021/04/18 00:06:27;;;;;;;13.43;8.13;;;4.80;99.90;;;;;;5022224;28;20603;-70
2021/04/18 00:08:53;;;;;;;8.57;7.77;;;4.70;99.90;;;;;;5022600;28;20976;-72
2021/04/18 00:11:19;;;;;;;11.03;7.60;;;4.70;99.90;;;;;;5020391;28;20228;-74
2021/04/18 00:13:45;;;;;;;8.43;7.63;;;4.70;99.90;;;;;;5022194;28;20179;-73
2021/04/18 00:16:11;;;;;;;8.60;7.70;;;4.80;99.90;;;;;;5022521;28;20440;-73
2021/04/18 00:18:37;;;;;;;10.90;7.93;;;4.80;99.90;;;;;;5016043;28;20464;-73
2021/04/18 00:21:03;;;;;;;14.40;7.40;;;4.80;99.90;;;;;;5022167;28;20440;-73
2021/04/18 00:23:29;;;;;;;8.40;7.60;;;4.80;99.90;;;;;;5022756;28;20189;-74
2021/04/18 00:25:55;;;;;;;6.67;6.07;;;4.70;99.90;;;;;;5022494;28;20978;-73
2021/04/18 00:28:20;;;;;;;6.20;5.60;;;4.70;99.90;;;;;;5020977;28;20692;-72
2021/04/18 00:30:46;;;;;;;5.93;5.30;;;4.70;99.90;;;;;;5022165;28;20681;-72
2021/04/18 00:33:12;;;;;;;6.77;5.17;;;4.70;99.90;;;;;;5022096;28;20228;-73
2021/04/18 00:35:37;;;;;;;5.73;5.17;;;4.70;99.90;;;;;;5023120;28;20426;-72
2021/04/18 00:38:03;;;;;;;6.33;5.73;;;4.70;99.90;;;;;;5021230;28;20249;-72
2021/04/18 00:40:28;;;;;;;7.07;6.00;;;4.70;99.90;;;;;;5020415;28;20654;-74
2021/04/18 00:42:54;;;;;;;5.53;4.93;;;4.70;99.90;;;;;;5020759;28;20264;-74
2021/04/18 00:45:23;;;;;;;6.90;5.43;;;4.70;99.90;;;;;;5020685;28;20173;-73
2021/04/18 00:47:53;;;;;;;5.83;5.40;;;4.70;99.90;;;;;;5021865;28;20199;-74
2021/04/18 00:50:24;;;;;;;6.23;5.63;;;4.60;99.90;;;;;;5022586;28;21048;-73
2021/04/18 00:52:50;;;;;;;7.93;5.43;;;4.60;99.90;;;;;;5024023;28;20426;-72
2021/04/18 00:55:16;;;;;;;9.10;5.47;;;4.60;99.90;;;;;;5016539;28;20435;-73
2021/04/18 00:57:42;;;;;;;6.60;5.90;;;4.60;99.90;;;;;;5023292;28;20442;-72
2021/04/18 01:00:08;;;;;;;6.43;5.83;;;4.60;99.90;;;;;;5020104;28;20181;-73
2021/04/18 01:02:34;;;;;;;6.37;5.70;;;4.60;99.90;;;;;;5020651;28;20199;-72
2021/04/18 01:05:00;;;;;;;7.37;5.93;;;4.60;99.90;;;;;;5020514;28;20509;-73
2021/04/18 01:07:26;;;;;;;7.57;4.60;;;4.50;99.90;;;;;;5020862;28;20454;-74
2021/04/18 01:09:52;;;;;;;5.57;5.10;;;4.50;99.90;;;;;;5019781;28;20207;-73
2021/04/18 01:12:18;;;;;;;6.10;5.50;;;4.50;99.90;;;;;;5022652;28;20426;-72
2021/04/18 01:14:44;;;;;;;6.50;5.17;;;4.50;99.90;;;;;;5019649;28;20415;-72
2021/04/18 01:17:10;;;;;;;6.33;5.73;;;4.50;99.90;;;;;;5019830;28;20452;-72
2021/04/18 01:19:35;;;;;;;6.67;4.97;;;4.50;99.90;;;;;;5022102;28;20222;-72
2021/04/18 01:22:01;;;;;;;6.40;5.90;;;4.50;99.90;;;;;;5022566;28;20511;-72
2021/04/18 01:24:27;;;;;;;6.53;5.87;;;4.50;99.90;;;;;;5021345;28;20211;-73
2021/04/18 01:26:53;;;;;;;7.60;5.83;;;4.40;99.90;;;;;;5018294;28;20447;-72
2021/04/18 01:29:18;;;;;;;18.20;5.90;;;4.50;99.90;;;;;;5022000;28;20204;-73
2021/04/18 01:31:44;;;;;;;8.80;5.70;;;4.50;99.90;;;;;;5019687;28;20180;-72
2021/04/18 01:34:14;;;;;;;8.53;5.83;;;4.50;99.90;;;;;;5017476;28;20179;-72
2021/04/18 01:36:45;;;;;;;6.20;5.60;;;4.50;99.90;;;;;;5015175;28;20212;-73
2021/04/18 01:39:12;;;;;;;7.57;6.83;;;4.50;99.90;;;;;;5014862;28;20959;-72
2021/04/18 01:41:38;;;;;;;10.53;6.10;;;4.50;99.90;;;;;;5021200;28;20426;-72
2021/04/18 01:44:12;;;;;;;6.53;5.93;;;4.50;99.90;;;;;;5019354;28;20510;-72
2021/04/18 01:46:41;;;;;;;6.87;6.27;;;4.60;99.90;;;;;;5022005;28;20448;-72
2021/04/18 01:49:07;;;;;;;8.63;6.07;;;4.70;99.90;;;;;;5019758;28;20462;-73
2021/04/18 01:51:33;;;;;;;8.60;7.17;;;4.60;99.90;;;;;;5021810;28;20787;-73
2021/04/18 01:54:00;;;;;;;8.10;6.40;;;4.60;99.90;;;;;;5020556;28;20692;-73
2021/04/18 01:56:25;;;;;;;7.30;6.40;;;4.60;99.90;;;;;;5019554;28;20465;-72
2021/04/18 01:58:51;;;;;;;7.17;6.47;;;4.70;99.90;;;;;;5019608;28;20445;-72
2021/04/18 02:01:16;;;;;;;7.30;6.47;;;4.70;99.90;;;;;;5019959;28;20275;-72
2021/04/18 02:03:42;;;;;;;11.03;6.60;;;4.70;99.90;;;;;;5022871;28;20514;-73
2021/04/18 02:06:08;;;;;;;6.80;6.20;;;4.70;99.90;;;;;;5019160;28;20187;-73
2021/04/18 02:08:34;;;;;;;8.80;6.43;;;4.70;99.90;;;;;;5017188;28;20471;-73
2021/04/18 02:10:59;;;;;;;7.30;6.60;;;4.60;99.90;;;;;;5021101;28;20225;-72
2021/04/18 02:13:25;;;;;;;11.93;7.23;;;4.60;99.90;;;;;;5020605;28;20180;-72
2021/04/18 02:15:50;;;;;;;6.77;6.17;;;4.60;99.90;;;;;;5018271;28;20177;-72
2021/04/18 02:18:16;;;;;;;7.27;6.57;;;4.60;99.90;;;;;;5022243;28;20256;-73
2021/04/18 02:20:41;;;;;;;7.27;6.67;;;4.60;99.90;;;;;;5015092;28;20193;-72
2021/04/18 02:23:07;;;;;;;6.63;6.00;;;4.60;99.90;;;;;;5021892;28;20187;-72
2021/04/18 02:25:32;;;;;;;8.50;7.27;;;4.60;99.90;;;;;;5020079;28;20189;-72
2021/04/18 02:27:58;;;;;;;7.83;7.07;;;4.60;99.90;;;;;;5025854;28;20213;-72
2021/04/18 02:30:23;;;;;;;10.50;7.80;;;4.60;99.90;;;;;;5023703;28;20210;-72
2021/04/18 02:32:49;;;;;;;7.60;6.87;;;4.50;99.90;;;;;;5020260;28;20294;-72
2021/04/18 02:35:16;;;;;;;8.20;7.30;;;4.50;99.90;;;;;;5022690;28;20180;-73
2021/04/18 02:37:42;;;;;;;9.50;7.23;;;4.50;99.90;;;;;;5021388;28;20195;-72
2021/04/18 02:40:08;;;;;;;8.77;7.87;;;4.50;99.90;;;;;;5019359;28;20435;-72
2021/04/18 02:42:35;;;;;;;7.17;6.57;;;4.50;99.90;;;;;;5023527;28;20437;-72
2021/04/18 02:45:01;;;;;;;8.63;7.80;;;4.50;99.90;;;;;;5020809;28;20439;-72
2021/04/18 02:47:26;;;;;;;10.83;7.10;;;4.50;99.90;;;;;;5024914;28;20511;-72
2021/04/18 02:49:52;;;;;;;8.87;7.33;;;4.50;99.90;;;;;;5021413;28;20199;-74
2021/04/18 02:52:18;;;;;;;8.70;7.10;;;4.50;99.90;;;;;;5025385;28;20180;-73
2021/04/18 02:54:43;;;;;;;10.23;7.30;;;4.50;99.90;;;;;;5024424;28;20707;-72
2021/04/18 02:57:09;;;;;;;9.40;7.33;;;4.50;99.90;;;;;;5021845;28;20261;-73
2021/04/18 02:59:34;;;;;;;8.83;7.93;;;4.40;99.90;;;;;;5024902;28;20185;-73
2021/04/18 03:02:00;;;;;;;10.43;7.30;;;4.50;99.90;;;;;;5023831;28;20215;-72
2021/04/18 03:04:25;;;;;;;9.20;7.17;;;4.50;99.90;;;;;;5022897;28;20194;-74
2021/04/18 03:06:51;;;;;;;10.80;7.53;;;4.40;99.90;;;;;;5022475;28;20212;-72
2021/04/18 03:09:16;;;;;;;9.20;8.27;;;4.40;99.90;;;;;;5020674;28;20628;-72
2021/04/18 03:11:42;;;;;;;8.93;8.10;;;4.40;99.90;;;;;;5025622;28;20184;-72
2021/04/18 03:14:07;;;;;;;10.07;8.37;;;4.40;99.90;;;;;;5020761;28;20399;-72
2021/04/18 03:16:33;;;;;;;9.70;8.30;;;4.40;99.90;;;;;;5023762;28;20176;-72
2021/04/18 03:18:58;;;;;;;12.47;7.13;;;4.40;99.90;;;;;;5022003;28;20246;-72
2021/04/18 03:21:24;;;;;;;8.80;7.90;;;4.40;99.90;;;;;;5023850;28;20214;-74
2021/04/18 03:23:49;;;;;;;9.80;7.10;;;4.40;99.90;;;;;;5021186;28;20181;-72
2021/04/18 03:26:15;;;;;;;13.67;8.13;;;4.40;99.90;;;;;;5024891;28;20709;-73
2021/04/18 03:28:41;;;;;;;8.40;7.70;;;4.40;99.90;;;;;;5017605;28;20678;-73
2021/04/18 03:31:07;;;;;;;8.90;8.03;;;4.40;99.90;;;;;;5019887;28;20176;-73
2021/04/18 03:33:33;;;;;;;10.93;7.30;;;4.40;99.90;;;;;;5023801;28;20188;-73
2021/04/18 03:35:58;;;;;;;10.20;8.20;;;4.50;99.90;;;;;;5023016;28;20426;-72
2021/04/18 03:38:24;;;;;;;8.30;7.40;;;4.50;99.90;;;;;;5022458;28;20222;-72
2021/04/18 03:40:50;;;;;;;8.60;7.80;;;4.50;99.90;;;;;;5021082;28;20184;-74
2021/04/18 03:43:16;;;;;;;10.90;9.23;;;4.50;99.90;;;;;;5022547;28;20235;-73
2021/04/18 03:45:41;;;;;;;8.47;7.63;;;4.50;99.90;;;;;;5021073;28;20451;-73
2021/04/18 03:48:07;;;;;;;9.53;8.53;;;4.50;99.90;;;;;;5025335;28;20201;-73
2021/04/18 03:50:33;;;;;;;8.80;8.00;;;4.50;99.90;;;;;;5022287;28;20665;-73
2021/04/18 03:52:58;;;;;;;13.07;8.27;;;4.40;99.90;;;;;;5022924;28;20429;-73
2021/04/18 03:55:24;;;;;;;10.00;9.00;;;4.40;99.90;;;;;;5023132;28;20182;-69
2021/04/18 03:57:51;;;;;;;9.80;8.63;;;4.30;99.90;;;;;;5022804;28;20197;-72
2021/04/18 04:00:17;;;;;;;17.17;9.70;;;4.30;99.90;;;;;;5021122;28;20425;-72
2021/04/18 04:02:43;;;;;;;9.83;8.33;;;4.30;99.90;;;;;;5020650;28;20434;-72
2021/04/18 04:05:09;;;;;;;9.03;8.10;;;4.30;99.90;;;;;;5023947;28;20874;-73
2021/04/18 04:07:35;;;;;;;13.07;8.20;;;4.30;99.90;;;;;;5021360;28;20712;-72
2021/04/18 04:10:00;;;;;;;9.50;8.50;;;4.30;99.90;;;;;;5022989;28;20998;-72
2021/04/18 04:12:27;;;;;;;19.80;9.30;;;4.30;99.90;;;;;;5023717;28;20171;-72
2021/04/18 04:14:53;;;;;;;9.63;8.67;;;4.40;99.90;;;;;;5021868;28;20169;-72
2021/04/18 04:17:19;;;;;;;9.07;8.17;;;4.40;99.90;;;;;;5023365;28;20850;-72
2021/04/18 04:19:45;;;;;;;12.40;8.00;;;4.40;99.90;;;;;;5016620;28;20877;-73
2021/04/18 04:22:11;;;;;;;9.47;8.47;;;4.40;99.90;;;;;;5016340;28;20496;-74
2021/04/18 04:24:36;;;;;;;9.00;8.10;;;4.40;99.90;;;;;;5021245;28;20534;-72
2021/04/18 04:27:02;;;;;;;15.33;9.30;;;4.40;99.90;;;;;;5022493;28;20214;-72
2021/04/18 04:29:27;;;;;;;11.77;9.17;;;4.40;99.90;;;;;;5019389;28;20215;-73
2021/04/18 04:31:53;;;;;;;13.57;9.40;;;4.40;99.90;;;;;;5022872;28;20175;-73
2021/04/18 04:34:18;;;;;;;9.30;8.30;;;4.40;99.90;;;;;;5020841;28;20280;-73
2021/04/18 04:36:44;;;;;;;14.57;9.30;;;4.40;99.90;;;;;;5018657;28;20186;-72
2021/04/18 04:39:10;;;;;;;11.30;8.60;;;4.40;99.90;;;;;;5023494;28;20187;-72
2021/04/18 04:41:35;;;;;;;11.20;10.00;;;4.50;99.90;;;;;;5021548;28;20196;-72
2021/04/18 04:44:01;;;;;;;11.77;9.80;;;4.50;99.90;;;;;;5021237;28;20771;-72
2021/04/18 04:46:27;;;;;;;11.20;9.47;;;4.50;99.90;;;;;;5019500;28;20180;-72
2021/04/18 04:48:52;;;;;;;13.90;9.47;;;4.50;99.90;;;;;;5021889;28;20206;-72
2021/04/18 04:51:18;;;;;;;11.47;9.57;;;4.50;99.90;;;;;;5020400;28;20195;-74
2021/04/18 04:53:43;;;;;;;12.53;10.23;;;4.50;99.90;;;;;;5023641;28;20184;-72
2021/04/18 04:56:09;;;;;;;13.63;9.73;;;4.60;99.90;;;;;;5019903;28;20230;-73
2021/04/18 04:58:34;;;;;;;10.23;8.80;;;4.60;99.90;;;;;;5018297;28;20222;-73
2021/04/18 05:01:00;;;;;;;13.50;9.77;;;4.70;99.90;;;;;;5021536;28;20661;-72
2021/04/18 05:03:27;;;;;;;11.50;8.40;;;4.70;99.90;;;;;;5021235;28;20656;-72
2021/04/18 05:05:55;;;;;;;13.67;9.67;;;4.70;99.90;;;;;;5021715;28;20175;-72
2021/04/18 05:08:21;;;;;;;11.10;8.90;;;4.70;99.90;;;;;;5019811;28;20530;-72
2021/04/18 05:10:47;;;;;;;11.90;9.63;;;4.70;99.90;;;;;;5020262;28;20393;-73
2021/04/18 05:13:13;;;;;;;11.30;9.83;;;4.80;99.90;;;;;;5019643;28;20766;-75
2021/04/18 05:15:39;;;;;;;10.90;9.80;;;4.90;99.90;;;;;;5019998;28;20195;-72
2021/04/18 05:18:04;;;;;;;11.13;9.97;;;4.90;99.90;;;;;;5018207;28;20417;-73
2021/04/18 05:20:30;;;;;;;12.10;9.60;;;5.00;99.90;;;;;;5017320;28;20828;-73
2021/04/18 05:22:56;;;;;;;10.27;8.60;;;5.00;99.90;;;;;;5021710;28;20218;-73
2021/04/18 05:25:22;;;;;;;10.30;9.23;;;4.90;99.90;;;;;;5020248;28;20478;-72
2021/04/18 05:27:48;;;;;;;11.47;8.83;;;4.90;99.90;;;;;;5021080;28;20211;-72
2021/04/18 05:30:13;;;;;;;8.73;7.83;;;4.90;99.90;;;;;;5019842;28;20851;-73
2021/04/18 05:32:39;;;;;;;13.40;8.37;;;5.00;99.90;;;;;;5019704;28;20180;-72
2021/04/18 05:35:06;;;;;;;9.50;8.67;;;5.00;99.90;;;;;;5020407;28;20437;-73
2021/04/18 05:37:32;;;;;;;9.10;7.93;;;5.00;99.90;;;;;;5020914;28;20196;-72
2021/04/18 05:39:57;;;;;;;9.83;8.20;;;5.00;99.90;;;;;;5021076;28;20861;-73
2021/04/18 05:42:23;;;;;;;12.10;8.70;;;4.90;99.90;;;;;;5020370;28;20190;-73
2021/04/18 05:44:48;;;;;;;9.30;7.90;;;5.00;99.90;;;;;;5022318;28;20591;-72
2021/04/18 05:47:14;;;;;;;11.97;8.90;;;5.00;99.90;;;;;;5021908;28;20206;-71
2021/04/18 05:49:40;;;;;;;11.47;10.10;;;4.90;99.90;;;;;;5022247;28;20266;-72
2021/04/18 05:52:06;;;;;;;10.10;8.80;;;5.00;99.90;;;;;;5019740;28;20429;-72
2021/04/18 05:54:32;;;;;;;10.53;9.53;;;5.10;99.90;;;;;;5018857;28;20340;-72
2021/04/18 05:56:57;;;;;;;13.63;9.00;;;5.10;99.90;;;;;;5019125;28;20534;-72
2021/04/18 05:59:23;;;;;;;10.37;9.27;;;5.10;99.90;;;;;;5019984;28;20261;-71
2021/04/18 06:01:48;;;;;;;10.00;9.00;;;5.20;99.90;;;;;;5026173;28;20185;-72
2021/04/18 06:04:14;;;;;;;9.23;8.20;;;5.20;99.90;;;;;;5023340;28;20562;-72
2021/04/18 06:06:39;;;;;;;12.33;8.60;;;5.30;99.90;;;;;;5024975;28;20271;-72
2021/04/18 06:09:05;;;;;;;15.50;9.87;;;5.20;99.90;;;;;;5024603;28;20243;-72
2021/04/18 06:11:30;;;;;;;11.80;9.50;;;5.30;99.90;;;;;;5022716;28;20205;-72
2021/04/18 06:13:56;;;;;;;10.87;9.73;;;5.40;99.90;;;;;;5024440;28;20243;-72
2021/04/18 06:16:22;;;;;;;14.97;9.53;;;5.40;99.90;;;;;;5022129;28;20187;-72
2021/04/18 06:18:47;;;;;;;12.90;10.23;;;5.40;99.90;;;;;;5023905;28;20231;-71
2021/04/18 06:21:13;;;;;;;10.80;9.27;;;5.40;99.90;;;;;;5026381;28;20667;-72
2021/04/18 06:23:39;;;;;;;12.87;9.57;;;5.40;99.90;;;;;;5023082;28;20184;-73
2021/04/18 06:26:04;;;;;;;10.17;9.10;;;5.50;99.90;;;;;;5024901;28;20192;-72
2021/04/18 06:28:30;;;;;;;12.93;9.77;;;5.50;99.90;;;;;;5024157;28;20686;-73
2021/04/18 06:30:56;;;;;;;10.27;9.17;;;5.60;99.90;;;;;;5024740;28;20708;-72
2021/04/18 06:33:21;;;;;;;17.47;9.50;;;5.60;99.90;;;;;;5025668;28;20687;-72
2021/04/18 06:35:47;;;;;;;12.50;9.70;;;5.60;99.90;;;;;;5025896;28;20188;-72
2021/04/18 06:38:12;;;;;;;10.80;9.03;;;5.60;99.90;;;;;;5022771;28;20553;-72
2021/04/18 06:40:39;;;;;;;11.40;9.60;;;5.70;99.90;;;;;;5025557;28;20272;-71
2021/04/18 06:43:08;;;;;;;12.53;10.10;;;5.80;99.90;;;;;;5023302;28;20259;-74
2021/04/18 06:45:34;;;;;;;13.87;11.20;;;5.80;99.90;;;;;;5024706;28;20398;-72
2021/04/18 06:48:00;;;;;;;12.17;10.40;;;5.80;99.90;;;;;;5023332;28;20503;-72
2021/04/18 06:50:26;;;;;;;14.57;12.80;;;5.90;99.90;;;;;;5023744;28;20466;-72
2021/04/18 06:52:52;;;;;;;10.90;9.80;;;5.90;99.90;;;;;;5021026;28;20424;-72
2021/04/18 06:55:18;;;;;;;10.27;9.23;;;6.00;99.90;;;;;;5023597;28;20177;-72
2021/04/18 06:57:43;;;;;;;11.57;9.40;;;6.10;99.90;;;;;;5025648;28;20836;-71
2021/04/18 07:00:12;;;;;;;13.83;10.40;;;6.30;99.90;;;;;;5022733;28;20535;-71
2021/04/18 07:02:38;;;;;;;11.43;9.63;;;6.40;99.90;;;;;;5023870;28;20674;-72
2021/04/18 07:05:10;;;;;;;10.77;9.70;;;6.40;99.90;;;;;;5022731;28;20439;-71
2021/04/18 07:07:38;;;;;;;11.97;9.83;;;6.40;99.90;;;;;;5024813;28;20465;-72
2021/04/18 07:10:13;;;;;;;12.47;10.00;;;6.50;99.90;;;;;;5023443;28;20456;-71
2021/04/18 07:12:38;;;;;;;17.03;10.37;;;6.60;99.90;;;;;;5022575;28;20422;-72
2021/04/18 07:15:05;;;;;;;15.60;10.03;;;6.70;99.90;;;;;;5022975;28;20426;-71
2021/04/18 07:17:31;;;;;;;14.80;10.37;;;6.80;99.90;;;;;;5023713;28;20210;-74
2021/04/18 07:20:10;;;;;;;13.80;10.07;;;6.90;99.90;;;;;;5022046;28;21008;-71
2021/04/18 07:22:36;;;;;;;13.50;10.10;;;6.90;99.90;;;;;;5022728;28;20214;-72
2021/04/18 07:25:03;;;;;;;13.37;10.27;;;6.80;99.90;;;;;;5017735;28;20441;-72
2021/04/18 07:27:48;;;;;;;12.73;10.70;;;6.80;99.90;;;;;;5020613;28;20199;-71
2021/04/18 07:30:17;;;;;;;13.60;10.53;;;6.90;99.90;;;;;;5017852;28;20489;-71
2021/04/18 07:32:44;;;;;;;11.63;9.70;;;6.90;99.90;;;;;;5019145;28;20431;-72
2021/04/18 07:35:32;;;;;;;11.23;9.03;;;7.10;99.90;;;;;;5020112;28;20973;-72
2021/04/18 07:38:26;;;;;;;14.57;10.50;;;7.10;99.90;;;;;;5019998;28;20955;-71
2021/04/18 07:40:54;;;;;;;13.13;9.60;;;7.20;99.90;;;;;;5020421;28;20443;-71
2021/04/18 07:43:20;;;;;;;14.67;10.37;;;7.30;99.90;;;;;;5019134;28;20434;-72
2021/04/18 07:45:47;;;;;;;14.40;10.20;;;7.30;99.90;;;;;;5024607;28;20419;-71
2021/04/18 07:48:16;;;;;;;11.80;10.00;;;7.40;99.90;;;;;;5015164;28;20451;-71
2021/04/18 07:50:44;;;;;;;13.47;9.90;;;7.40;99.90;;;;;;5016911;28;20425;-72
2021/04/18 07:53:10;;;;;;;17.33;10.30;;;7.40;99.90;;;;;;5020234;28;20512;-71
2021/04/18 07:55:36;;;;;;;15.80;9.93;;;7.40;99.90;;;;;;5016991;28;20512;-72
2021/04/18 07:58:04;;;;;;;11.13;9.73;;;7.40;99.90;;;;;;5023295;28;20416;-71
2021/04/18 08:00:30;;;;;;;12.00;9.63;;;7.40;99.90;;;;;;5024022;28;20454;-70
2021/04/18 08:02:55;;;;;;;15.33;10.00;;;7.50;99.90;;;;;;5022353;28;20427;-71
2021/04/18 08:05:25;;;;;;;13.13;9.40;;;7.60;99.90;;;;;;5018688;28;20497;-71
2021/04/18 08:08:02;;;;;;;11.60;9.30;;;7.70;99.90;;;;;;5021424;28;20193;-71
2021/04/18 08:10:39;;;;;;;14.63;9.00;;;7.60;99.90;;;;;;5018320;28;20466;-71
2021/04/18 08:13:09;;;;;;;14.27;7.73;;;7.60;99.90;;;;;;5022031;28;20450;-73
2021/04/18 08:15:56;;;;;;;10.73;8.03;;;7.60;99.90;;;;;;5022956;28;20441;-70
2021/04/18 08:18:32;;;;;;;15.83;8.10;;;7.60;99.90;;;;;;5012718;28;20961;-71
2021/04/18 08:20:59;;;;;;;10.50;8.23;;;7.70;99.90;;;;;;5022730;28;20525;-70
2021/04/18 08:23:36;;;;;;;12.03;8.10;;;7.70;99.90;;;;;;5021150;28;20436;-70
2021/04/18 08:26:12;;;;;;;9.77;8.27;;;7.80;99.90;;;;;;5021344;28;20800;-71
2021/04/18 08:28:58;;;;;;;11.37;7.77;;;8.00;99.90;;;;;;5020236;28;20552;-72
2021/04/18 08:31:25;;;;;;;8.17;7.33;;;8.10;99.90;;;;;;5019268;28;20842;-71
2021/04/18 08:33:58;;;;;;;8.27;7.00;;;8.10;99.90;;;;;;5022830;28;20796;-71
2021/04/18 08:36:26;;;;;;;11.87;7.17;;;8.30;99.90;;;;;;5018050;28;20418;-72
2021/04/18 08:39:04;;;;;;;9.20;6.30;;;8.40;99.90;;;;;;5021255;28;20449;-71
2021/04/18 08:41:44;;;;;;;11.47;7.67;;;8.40;99.90;;;;;;5022586;28;20431;-70
2021/04/18 08:44:30;;;;;;;9.57;7.37;;;8.50;99.90;;;;;;5019086;28;20436;-70
2021/04/18 08:46:58;;;;;;;13.27;7.60;;;8.40;99.90;;;;;;5015905;28;20985;-69
2021/04/18 08:49:43;;;;;;;8.83;6.83;;;8.40;99.90;;;;;;5020727;28;20472;-70
2021/04/18 08:52:20;;;;;;;10.40;8.23;;;8.40;99.90;;;;;;5020060;28;20468;-74
2021/04/18 08:54:46;;;;;;;11.47;8.07;;;8.30;99.90;;;;;;5016082;28;21003;-71
2021/04/18 08:57:15;;;;;;;11.20;7.67;;;8.30;99.90;;;;;;5018697;28;20439;-70
2021/04/18 08:59:42;;;;;;;8.97;7.87;;;8.30;99.90;;;;;;5018638;28;20421;-71
2021/04/18 09:02:12;;;;;;;9.10;7.10;;;8.30;99.90;;;;;;5023141;28;21121;-72
2021/04/18 09:04:47;;;;;;;8.50;7.20;;;8.40;99.90;;;;;;5016506;28;20434;-73
2021/04/18 09:07:15;;;;;;;9.37;6.97;;;8.40;99.90;;;;;;5015552;28;20443;-69
2021/04/18 09:09:43;;;;;;;8.00;7.20;;;8.50;99.90;;;;;;5018848;28;20972;-71
2021/04/18 09:12:09;;;;;;;9.97;7.33;;;8.70;99.90;;;;;;5020100;28;20486;-71
2021/04/18 09:14:41;;;;;;;16.67;8.57;;;8.80;99.90;;;;;;5020540;28;20514;-70
2021/04/18 09:17:10;;;;;;;9.00;7.97;;;8.80;99.90;;;;;;5020411;28;20807;-70
2021/04/18 09:19:37;;;;;;;19.23;8.40;;;8.90;99.90;;;;;;5019381;28;20954;-73
2021/04/18 09:22:12;;;;;;;12.83;8.40;;;9.00;99.90;;;;;;5018307;28;20460;-70
2021/04/18 09:24:39;;;;;;;10.60;7.00;;;8.90;99.90;;;;;;5019201;28;20464;-70
2021/04/18 09:27:26;;;;;;;11.33;8.30;;;9.00;99.90;;;;;;5022332;28;21080;-71
2021/04/18 09:29:52;;;;;;;10.27;7.60;;;9.20;99.90;;;;;;5020381;28;20468;-70
2021/04/18 09:32:20;;;;;;;11.60;6.80;;;9.40;99.90;;;;;;5019866;28;20463;-71
2021/04/18 09:34:47;;;;;;;11.40;7.07;;;9.50;99.90;;;;;;5015042;28;20438;-70
2021/04/18 09:37:20;;;;;;;11.23;6.90;;;9.60;99.90;;;;;;5011227;28;20454;-71
2021/04/18 09:39:54;;;;;;;7.63;6.27;;;9.70;99.90;;;;;;5005934;28;20461;-72
2021/04/18 09:42:20;;;;;;;9.30;6.40;;;9.80;99.90;;;;;;5011438;28;20843;-74
2021/04/18 09:44:47;;;;;;;8.73;7.00;;;9.80;99.90;;;;;;5013546;28;20465;-73
2021/04/18 09:47:31;;;;;;;9.63;7.47;;;9.90;99.90;;;;;;5015519;28;20453;-71
2021/04/18 09:49:59;;;;;;;8.57;7.10;;;10.00;99.90;;;;;;5011067;28;20471;-71
2021/04/18 09:52:31;;;;;;;8.87;6.60;;;10.00;99.90;;;;;;5013156;28;20415;-71
2021/04/18 09:55:16;;;;;;;11.30;7.60;;;10.10;99.90;;;;;;5014456;28;20463;-73
2021/04/18 09:57:53;;;;;;;7.87;6.63;;;10.10;99.90;;;;;;5008797;28;20542;-71
2021/04/18 10:00:24;;;;;;;9.93;7.80;;;10.20;99.90;;;;;;5013190;28;20424;-71
2021/04/18 10:03:11;;;;;;;12.93;7.37;;;10.00;99.90;;;;;;5010537;28;20430;-70
2021/04/18 10:05:45;;;;;;;10.27;7.33;;;10.00;99.90;;;;;;5014120;28;20435;-71
2021/04/18 10:08:19;;;;;;;10.97;8.80;;;10.10;99.90;;;;;;5009556;28;20510;-72
2021/04/18 10:10:54;;;;;;;10.37;8.23;;;10.20;99.90;;;;;;5009573;28;20578;-72
2021/04/18 10:13:40;;;;;;;9.77;8.53;;;10.10;99.90;;;;;;5020053;28;20432;-71
2021/04/18 10:16:07;;;;;;;12.47;9.67;;;10.20;99.90;;;;;;5018762;28;20427;-71
2021/04/18 10:18:34;;;;;;;11.73;9.10;;;10.50;99.90;;;;;;5016189;28;20457;-71
2021/04/18 10:21:23;;;;;;;8.90;8.00;;;10.80;99.90;;;;;;5014865;28;21161;-71
2021/04/18 10:23:50;;;;;;;13.30;9.50;;;10.70;99.90;;;;;;5010931;28;20510;-71
2021/04/18 10:26:18;;;;;;;10.87;9.77;;;10.80;99.90;;;;;;5010010;28;20510;-71
2021/04/18 10:28:49;;;;;;;12.87;9.40;;;10.50;99.90;;;;;;5015648;28;20471;-71
2021/04/18 10:31:16;;;;;;;16.60;9.20;;;10.50;99.90;;;;;;5012066;28;20426;-71
2021/04/18 10:33:41;;;;;;;13.53;8.20;;;10.50;99.90;;;;;;5019456;28;20415;-72
2021/04/18 10:36:08;;;;;;;12.03;9.20;;;10.40;99.90;;;;;;5011350;28;20454;-72
2021/04/18 10:38:34;;;;;;;8.90;8.00;;;10.40;99.90;;;;;;5012539;28;20700;-71
2021/04/18 10:41:00;;;;;;;10.23;8.93;;;10.50;99.90;;;;;;5015516;28;20562;-71
2021/04/18 10:43:25;;;;;;;11.07;9.37;;;10.70;99.90;;;;;;5011015;28;20760;-72
2021/04/18 10:45:51;;;;;;;12.37;10.33;;;10.90;99.90;;;;;;5014585;28;20178;-71
2021/04/18 10:48:17;;;;;;;9.17;8.23;;;10.90;99.90;;;;;;5020851;28;20205;-71
2021/04/18 10:50:43;;;;;;;11.10;9.07;;;11.00;99.90;;;;;;5014977;28;20246;-72
2021/04/18 10:53:09;;;;;;;11.00;9.20;;;11.00;99.90;;;;;;5017389;28;20691;-71
2021/04/18 10:55:35;;;;;;;11.30;9.23;;;11.00;99.90;;;;;;5016599;28;20440;-71
2021/04/18 10:58:00;;;;;;;11.87;9.30;;;11.10;99.90;;;;;;5016362;28;20206;-71
2021/04/18 11:00:27;;;;;;;12.30;9.60;;;11.10;99.90;;;;;;5019595;28;20562;-71
2021/04/18 11:02:53;;;;;;;13.60;10.10;;;11.40;99.90;;;;;;5020135;28;20275;-71
2021/04/18 11:05:18;;;;;;;11.60;8.80;;;11.20;99.90;;;;;;5016464;28;20527;-71
2021/04/18 11:07:44;;;;;;;9.67;7.87;;;11.40;99.90;;;;;;5013015;28;20229;-71
2021/04/18 11:10:10;;;;;;;12.63;9.53;;;11.50;99.90;;;;;;5021299;28;20217;-72
2021/04/18 11:12:37;;;;;;;8.80;7.90;;;11.60;99.90;;;;;;5016255;28;20186;-71
2021/04/18 11:15:04;;;;;;;11.10;7.90;;;11.90;99.90;;;;;;5015487;28;20430;-72
2021/04/18 11:17:29;;;;;;;12.40;9.30;;;12.00;99.90;;;;;;5017142;28;20445;-70
2021/04/18 11:19:55;;;;;;;11.80;9.07;;;12.10;99.90;;;;;;5019841;28;20454;-71
2021/04/18 11:22:21;;;;;;;9.60;8.50;;;12.20;99.90;;;;;;5016038;28;20195;-72
2021/04/18 11:24:47;;;;;;;10.03;8.30;;;12.30;99.90;;;;;;5017760;28;20223;-71
2021/04/18 11:27:12;;;;;;;9.67;8.67;;;12.30;99.90;;;;;;5020563;28;20525;-71
2021/04/18 11:29:42;;;;;;;10.47;8.37;;;12.20;99.90;;;;;;5011507;28;20213;-71
2021/04/18 11:32:11;;;;;;;11.90;8.90;;;12.20;99.90;;;;;;5023777;28;20661;-71
2021/04/18 11:34:38;;;;;;;8.97;7.90;;;11.90;99.90;;;;;;5024470;28;21121;-72
2021/04/18 11:37:04;;;;;;;10.23;7.87;;;11.80;99.90;;;;;;5018196;28;20829;-68
2021/04/18 11:39:30;;;;;;;14.13;8.87;;;11.70;99.90;;;;;;5015320;28;20432;-72
2021/04/18 11:41:55;;;;;;;11.40;8.70;;;11.50;99.90;;;;;;5019104;28;20441;-71
2021/04/18 11:44:21;;;;;;;9.37;8.47;;;11.40;99.90;;;;;;5020459;28;20565;-71
2021/04/18 11:46:47;;;;;;;11.60;8.83;;;11.20;99.90;;;;;;5012061;28;20185;-71
2021/04/18 11:49:14;;;;;;;10.40;8.67;;;11.20;99.90;;;;;;5014988;28;20479;-71
2021/04/18 11:51:41;;;;;;;10.43;7.67;;;11.10;99.90;;;;;;5012432;28;20185;-71
2021/04/18 11:54:07;;;;;;;8.57;7.63;;;10.90;99.90;;;;;;5009544;28;20954;-72
2021/04/18 11:56:33;;;;;;;9.37;8.40;;;10.70;99.90;;;;;;5011030;28;20464;-71
2021/04/18 11:58:59;;;;;;;8.33;7.50;;;10.70;99.90;;;;;;5015943;28;20471;-71
2021/04/18 12:01:25;;;;;;;13.73;8.70;;;10.80;99.90;;;;;;5019043;28;20196;-72
2021/04/18 12:03:50;;;;;;;10.40;8.33;;;10.80;99.90;;;;;;5013899;28;20523;-71
2021/04/18 12:06:16;;;;;;;11.67;8.43;;;10.80;99.90;;;;;;5016729;28;20515;-71
2021/04/18 12:08:42;;;;;;;9.40;7.93;;;11.10;99.90;;;;;;5015159;28;20295;-72
2021/04/18 12:11:07;;;;;;;10.43;9.23;;;11.30;99.90;;;;;;5016026;28;20185;-71
2021/04/18 12:13:33;;;;;;;14.27;9.17;;;11.40;99.90;;;;;;5016023;28;20566;-71
2021/04/18 12:15:58;;;;;;;9.03;8.13;;;11.70;99.90;;;;;;5019863;28;20600;-71
2021/04/18 12:18:24;;;;;;;9.63;8.07;;;11.70;99.90;;;;;;5019316;28;20209;-70
2021/04/18 12:20:50;;;;;;;10.50;7.73;;;11.80;99.90;;;;;;5020002;28;20202;-72
2021/04/18 12:23:16;;;;;;;13.95;9.05;;;12.00;99.90;;;;;;5008179;28;20538;-72
2021/04/18 12:25:41;;;;;;;8.97;8.03;;;12.20;99.90;;;;;;5020322;28;20195;-71
2021/04/18 12:28:08;;;;;;;9.47;8.47;;;12.20;99.90;;;;;;5010972;28;20513;-74
2021/04/18 12:30:34;;;;;;;9.47;7.10;;;12.30;99.90;;;;;;5013068;28;20307;-72
2021/04/18 12:33:00;;;;;;;8.80;7.33;;;12.30;99.90;;;;;;5021363;28;20518;-74
2021/04/18 12:35:26;;;;;;;10.00;7.17;;;12.50;99.90;;;;;;5015934;28;20519;-72
2021/04/18 12:37:52;;;;;;;8.43;7.33;;;12.50;99.90;;;;;;5017956;28;20202;-73
2021/04/18 12:40:18;;;;;;;11.50;7.23;;;12.50;99.90;;;;;;5017371;28;20186;-73
2021/04/18 12:42:43;;;;;;;8.93;7.87;;;12.60;99.90;;;;;;5015301;28;20434;-73
2021/04/18 12:45:10;;;;;;;7.83;6.70;;;12.50;99.90;;;;;;5016241;28;20437;-73
2021/04/18 12:47:36;;;;;;;10.33;7.43;;;12.30;99.90;;;;;;5013210;28;20213;-73
2021/04/18 12:50:03;;;;;;;9.07;6.20;;;12.40;99.90;;;;;;5015725;28;20600;-74